Accueil
METAR-TAF:

METAR-TAF

Aéroports :

Wanaham

Lifou, Nouvelle-Calédonie

latitude: 20-46S, longitude: 167-14E, altitude: 28 m

METAR: absent

Heure: 02:34 (15:34 UTC)

Prévision

Le bulletin a été fait il y a 4 heures et 34 minutes, à 11:00 UTC
Prévision valable du 21 à 12 UTC au 22 à 12 UTC
Vent 12 kt de sud-est
Visibilité 10 km ou plus
Nuages fragmentés à une hauteur de 2500 ft
Temporairement
du 21 à 12 UTC au 21 à 24 UTC
Visibilité: 4000 m
Nuages fragmentés à une hauteur de 1400 ft
Quelques nuages à une hauteur de 2000 ft, Cumulus congestus.
averses de pluie

TAF: NWWL 211100Z 2112/2212 13012KT 9999 BKN025 TEMPO 2112/2124 4000 SHRA BKN014 FEW020TCU

Observations et prévisions météorologiques de plus de 4000 aéroports (messages METAR et TAF).

Les stations disponibles sont représentées par des disques jaunes et rouges sur la carte.

Passer la souris dessus pour voir le nom de la station.

Cliquer dessus pour voir les observations et prévisions météorologiques.

Pour changer de carte: cliquez sur les boutons verts avec une croix noire pour zoomer, sur le bouton vert avec un tiret pour effectuer un zoom arrière, ou sur les flèches vertes pour les cartes adjacentes.


METAR-TAF: